sensor_id;sensor_type;location;lat;lon;timestamp;temperature;humidity
18741;DHT22;9499;52.472;13.448;2022-09-11T00:01:29;16.30;99.90
18741;DHT22;9499;52.472;13.448;2022-09-11T00:03:56;16.30;99.90
18741;DHT22;9499;52.472;13.448;2022-09-11T00:06:24;16.30;99.90
18741;DHT22;9499;52.472;13.448;2022-09-11T00:08:52;16.20;99.90
18741;DHT22;9499;52.472;13.448;2022-09-11T00:11:22;16.20;99.90
18741;DHT22;9499;52.472;13.448;2022-09-11T00:13:50;16.20;99.90
18741;DHT22;9499;52.472;13.448;2022-09-11T00:16:20;16.20;99.90
18741;DHT22;9499;52.472;13.448;2022-09-11T00:18:48;16.20;99.90
18741;DHT22;9499;52.472;13.448;2022-09-11T00:21:15;16.30;99.90
18741;DHT22;9499;52.472;13.448;2022-09-11T00:23:43;16.30;99.90
18741;DHT22;9499;52.472;13.448;2022-09-11T00:26:10;16.20;99.90
18741;DHT22;9499;52.472;13.448;2022-09-11T00:28:37;16.20;99.90
18741;DHT22;9499;52.472;13.448;2022-09-11T00:31:05;16.20;99.90
18741;DHT22;9499;52.472;13.448;2022-09-11T00:33:33;16.20;99.90
18741;DHT22;9499;52.472;13.448;2022-09-11T00:36:02;16.20;99.90
18741;DHT22;9499;52.472;13.448;2022-09-11T00:38:32;16.20;99.90
18741;DHT22;9499;52.472;13.448;2022-09-11T00:41:02;16.10;99.90
18741;DHT22;9499;52.472;13.448;2022-09-11T00:43:53;16.10;99.90
18741;DHT22;9499;52.472;13.448;2022-09-11T00:46:20;16.10;99.90
18741;DHT22;9499;52.472;13.448;2022-09-11T00:48:47;16.00;99.90
18741;DHT22;9499;52.472;13.448;2022-09-11T00:51:17;16.00;99.90
18741;DHT22;9499;52.472;13.448;2022-09-11T00:53:46;16.00;99.90
18741;DHT22;9499;52.472;13.448;2022-09-11T00:56:16;16.00;99.90
18741;DHT22;9499;52.472;13.448;2022-09-11T00:58:45;16.00;99.90
18741;DHT22;9499;52.472;13.448;2022-09-11T01:01:13;16.00;99.90
18741;DHT22;9499;52.472;13.448;2022-09-11T01:03:40;16.00;99.90
18741;DHT22;9499;52.472;13.448;2022-09-11T01:06:07;16.00;99.90
18741;DHT22;9499;52.472;13.448;2022-09-11T01:08:34;16.00;99.90
18741;DHT22;9499;52.472;13.448;2022-09-11T01:11:07;15.90;99.90
18741;DHT22;9499;52.472;13.448;2022-09-11T01:13:45;16.00;99.90
18741;DHT22;9499;52.472;13.448;2022-09-11T01:16:18;16.00;99.90
18741;DHT22;9499;52.472;13.448;2022-09-11T01:18:52;16.10;99.90
18741;DHT22;9499;52.472;13.448;2022-09-11T01:21:42;16.10;99.90
18741;DHT22;9499;52.472;13.448;2022-09-11T01:24:22;16.10;99.90
18741;DHT22;9499;52.472;13.448;2022-09-11T01:26:59;16.10;99.90
18741;DHT22;9499;52.472;13.448;2022-09-11T01:29:38;16.00;99.90
18741;DHT22;9499;52.472;13.448;2022-09-11T01:32:10;16.00;99.90
18741;DHT22;9499;52.472;13.448;2022-09-11T01:34:44;15.90;99.90
18741;DHT22;9499;52.472;13.448;2022-09-11T01:37:16;15.80;99.90
18741;DHT22;9499;52.472;13.448;2022-09-11T01:39:52;15.80;99.90
18741;DHT22;9499;52.472;13.448;2022-09-11T01:42:22;15.80;99.90
18741;DHT22;9499;52.472;13.448;2022-09-11T01:44:53;15.80;99.90
18741;DHT22;9499;52.472;13.448;2022-09-11T01:47:22;15.80;99.90
18741;DHT22;9499;52.472;13.448;2022-09-11T01:49:52;15.70;99.90
18741;DHT22;9499;52.472;13.448;2022-09-11T01:52:26;15.70;99.90
18741;DHT22;9499;52.472;13.448;2022-09-11T01:54:58;15.70;99.90
18741;DHT22;9499;52.472;13.448;2022-09-11T01:57:30;15.70;99.90
18741;DHT22;9499;52.472;13.448;2022-09-11T02:00:01;15.70;99.90
18741;DHT22;9499;52.472;13.448;2022-09-11T02:02:31;15.60;99.90
18741;DHT22;9499;52.472;13.448;2022-09-11T02:05:04;15.60;99.90
18741;DHT22;9499;52.472;13.448;2022-09-11T02:07:36;15.60;99.90
18741;DHT22;9499;52.472;13.448;2022-09-11T02:10:07;15.60;99.90
18741;DHT22;9499;52.472;13.448;2022-09-11T02:12:38;15.50;99.90
18741;DHT22;9499;52.472;13.448;2022-09-11T02:15:08;15.50;99.90
18741;DHT22;9499;52.472;13.448;2022-09-11T02:17:45;15.50;99.90
18741;DHT22;9499;52.472;13.448;2022-09-11T02:20:13;15.50;99.90
18741;DHT22;9499;52.472;13.448;2022-09-11T02:22:40;15.50;99.90
18741;DHT22;9499;52.472;13.448;2022-09-11T02:25:08;15.50;99.90
18741;DHT22;9499;52.472;13.448;2022-09-11T02:27:34;15.50;99.90
18741;DHT22;9499;52.472;13.448;2022-09-11T02:30:01;15.60;99.90
18741;DHT22;9499;52.472;13.448;2022-09-11T02:32:30;15.50;99.90
18741;DHT22;9499;52.472;13.448;2022-09-11T02:34:57;15.50;99.90
18741;DHT22;9499;52.472;13.448;2022-09-11T02:37:33;15.50;99.90
18741;DHT22;9499;52.472;13.448;2022-09-11T02:43:05;15.50;99.90
18741;DHT22;9499;52.472;13.448;2022-09-11T02:45:41;15.40;99.90
18741;DHT22;9499;52.472;13.448;2022-09-11T02:48:24;15.40;99.90
18741;DHT22;9499;52.472;13.448;2022-09-11T02:50:58;15.40;99.90
18741;DHT22;9499;52.472;13.448;2022-09-11T02:53:35;15.40;99.90
18741;DHT22;9499;52.472;13.448;2022-09-11T02:56:10;15.40;99.90
18741;DHT22;9499;52.472;13.448;2022-09-11T02:58:39;15.30;99.90
18741;DHT22;9499;52.472;13.448;2022-09-11T03:01:09;15.30;99.90
18741;DHT22;9499;52.472;13.448;2022-09-11T03:03:38;15.30;99.90
18741;DHT22;9499;52.472;13.448;2022-09-11T03:06:06;15.30;99.90
18741;DHT22;9499;52.472;13.448;2022-09-11T03:08:34;15.30;99.90
18741;DHT22;9499;52.472;13.448;2022-09-11T03:11:00;15.30;99.90
18741;DHT22;9499;52.472;13.448;2022-09-11T03:13:26;15.30;99.90
18741;DHT22;9499;52.472;13.448;2022-09-11T03:15:53;15.20;99.90
18741;DHT22;9499;52.472;13.448;2022-09-11T03:18:20;15.20;99.90
18741;DHT22;9499;52.472;13.448;2022-09-11T03:20:48;15.10;99.90
18741;DHT22;9499;52.472;13.448;2022-09-11T03:23:16;15.10;99.90
18741;DHT22;9499;52.472;13.448;2022-09-11T03:25:42;15.10;99.90
18741;DHT22;9499;52.472;13.448;2022-09-11T03:28:09;15.00;99.90
18741;DHT22;9499;52.472;13.448;2022-09-11T03:30:35;15.00;99.90
18741;DHT22;9499;52.472;13.448;2022-09-11T03:33:02;15.00;99.90
18741;DHT22;9499;52.472;13.448;2022-09-11T03:35:29;15.00;99.90
18741;DHT22;9499;52.472;13.448;2022-09-11T03:37:57;14.90;99.90
18741;DHT22;9499;52.472;13.448;2022-09-11T03:40:24;14.90;99.90
18741;DHT22;9499;52.472;13.448;2022-09-11T03:42:51;14.80;99.90
18741;DHT22;9499;52.472;13.448;2022-09-11T03:45:18;14.90;99.90
18741;DHT22;9499;52.472;13.448;2022-09-11T03:47:45;14.90;99.90
18741;DHT22;9499;52.472;13.448;2022-09-11T03:50:12;14.90;99.90
18741;DHT22;9499;52.472;13.448;2022-09-11T03:52:39;14.80;99.90
18741;DHT22;9499;52.472;13.448;2022-09-11T03:55:07;14.70;99.90
18741;DHT22;9499;52.472;13.448;2022-09-11T03:57:34;14.80;99.90
18741;DHT22;9499;52.472;13.448;2022-09-11T04:00:03;14.70;99.90
18741;DHT22;9499;52.472;13.448;2022-09-11T04:02:30;14.70;99.90
18741;DHT22;9499;52.472;13.448;2022-09-11T04:04:57;14.70;99.90
18741;DHT22;9499;52.472;13.448;2022-09-11T04:07:23;14.70;99.90
18741;DHT22;9499;52.472;13.448;2022-09-11T04:09:50;14.70;99.90
18741;DHT22;9499;52.472;13.448;2022-09-11T04:12:18;14.70;99.90
18741;DHT22;9499;52.472;13.448;2022-09-11T04:14:44;14.70;99.90
18741;DHT22;9499;52.472;13.448;2022-09-11T04:17:12;14.60;99.90
18741;DHT22;9499;52.472;13.448;2022-09-11T04:19:39;14.60;99.90
18741;DHT22;9499;52.472;13.448;2022-09-11T04:22:05;14.60;99.90
18741;DHT22;9499;52.472;13.448;2022-09-11T04:24:32;14.50;99.90
18741;DHT22;9499;52.472;13.448;2022-09-11T04:26:59;14.40;99.90
18741;DHT22;9499;52.472;13.448;2022-09-11T04:29:27;14.40;99.90
18741;DHT22;9499;52.472;13.448;2022-09-11T04:31:54;14.40;99.90
18741;DHT22;9499;52.472;13.448;2022-09-11T04:34:21;14.50;99.90
18741;DHT22;9499;52.472;13.448;2022-09-11T04:36:48;14.50;99.90
18741;DHT22;9499;52.472;13.448;2022-09-11T04:39:15;14.50;99.90
18741;DHT22;9499;52.472;13.448;2022-09-11T04:41:41;14.60;99.90
18741;DHT22;9499;52.472;13.448;2022-09-11T04:44:09;14.50;99.90
18741;DHT22;9499;52.472;13.448;2022-09-11T04:46:36;14.40;99.90
18741;DHT22;9499;52.472;13.448;2022-09-11T04:49:03;14.40;99.90
18741;DHT22;9499;52.472;13.448;2022-09-11T04:51:31;14.50;99.90
18741;DHT22;9499;52.472;13.448;2022-09-11T04:53:59;14.40;99.90
18741;DHT22;9499;52.472;13.448;2022-09-11T04:56:27;14.50;99.90
18741;DHT22;9499;52.472;13.448;2022-09-11T04:58:55;14.50;99.90
18741;DHT22;9499;52.472;13.448;2022-09-11T05:01:23;14.40;99.90
18741;DHT22;9499;52.472;13.448;2022-09-11T05:03:51;14.40;99.90
18741;DHT22;9499;52.472;13.448;2022-09-11T05:06:18;14.40;99.90
18741;DHT22;9499;52.472;13.448;2022-09-11T05:08:45;14.40;99.90
18741;DHT22;9499;52.472;13.448;2022-09-11T05:11:13;14.50;99.90
18741;DHT22;9499;52.472;13.448;2022-09-11T05:13:40;14.50;99.90
18741;DHT22;9499;52.472;13.448;2022-09-11T05:16:09;14.50;99.90
18741;DHT22;9499;52.472;13.448;2022-09-11T05:18:35;14.60;99.90
18741;DHT22;9499;52.472;13.448;2022-09-11T05:21:05;14.60;99.90
18741;DHT22;9499;52.472;13.448;2022-09-11T05:23:32;14.60;99.90
18741;DHT22;9499;52.472;13.448;2022-09-11T05:26:00;14.60;99.90
18741;DHT22;9499;52.472;13.448;2022-09-11T05:28:27;14.70;99.90
18741;DHT22;9499;52.472;13.448;2022-09-11T05:30:55;14.80;99.90
18741;DHT22;9499;52.472;13.448;2022-09-11T05:33:23;14.80;99.90
18741;DHT22;9499;52.472;13.448;2022-09-11T05:35:50;14.80;99.90
18741;DHT22;9499;52.472;13.448;2022-09-11T05:38:18;14.80;99.90
18741;DHT22;9499;52.472;13.448;2022-09-11T05:40:44;14.80;99.90
18741;DHT22;9499;52.472;13.448;2022-09-11T05:43:12;14.80;99.90
18741;DHT22;9499;52.472;13.448;2022-09-11T05:45:40;14.90;99.90
18741;DHT22;9499;52.472;13.448;2022-09-11T05:48:07;14.80;99.90
18741;DHT22;9499;52.472;13.448;2022-09-11T05:50:33;14.90;99.90
18741;DHT22;9499;52.472;13.448;2022-09-11T05:53:00;14.90;99.90
18741;DHT22;9499;52.472;13.448;2022-09-11T05:55:27;15.00;99.90
18741;DHT22;9499;52.472;13.448;2022-09-11T05:57:54;15.00;99.90
18741;DHT22;9499;52.472;13.448;2022-09-11T06:00:21;15.00;99.90
18741;DHT22;9499;52.472;13.448;2022-09-11T06:02:47;15.00;99.90
18741;DHT22;9499;52.472;13.448;2022-09-11T06:05:14;15.10;99.90
18741;DHT22;9499;52.472;13.448;2022-09-11T06:07:40;15.10;99.90
18741;DHT22;9499;52.472;13.448;2022-09-11T06:10:07;15.10;99.90
18741;DHT22;9499;52.472;13.448;2022-09-11T06:12:35;15.10;99.90
18741;DHT22;9499;52.472;13.448;2022-09-11T06:15:02;15.20;99.90
18741;DHT22;9499;52.472;13.448;2022-09-11T06:17:29;15.20;99.90
18741;DHT22;9499;52.472;13.448;2022-09-11T06:19:55;15.20;99.90
18741;DHT22;9499;52.472;13.448;2022-09-11T06:22:22;15.20;99.90
18741;DHT22;9499;52.472;13.448;2022-09-11T06:24:48;15.30;99.90
18741;DHT22;9499;52.472;13.448;2022-09-11T06:27:15;15.30;99.90
18741;DHT22;9499;52.472;13.448;2022-09-11T06:29:43;15.30;99.90
18741;DHT22;9499;52.472;13.448;2022-09-11T06:32:10;15.40;99.90
18741;DHT22;9499;52.472;13.448;2022-09-11T06:34:36;15.50;99.90
18741;DHT22;9499;52.472;13.448;2022-09-11T06:37:03;15.70;99.90
18741;DHT22;9499;52.472;13.448;2022-09-11T06:39:29;15.70;99.90
18741;DHT22;9499;52.472;13.448;2022-09-11T06:41:58;15.80;99.90
18741;DHT22;9499;52.472;13.448;2022-09-11T06:44:27;15.90;99.90
18741;DHT22;9499;52.472;13.448;2022-09-11T06:46:55;15.80;99.90
18741;DHT22;9499;52.472;13.448;2022-09-11T06:49:22;15.80;99.90
18741;DHT22;9499;52.472;13.448;2022-09-11T06:51:49;15.90;99.90
18741;DHT22;9499;52.472;13.448;2022-09-11T06:54:16;15.90;99.90
18741;DHT22;9499;52.472;13.448;2022-09-11T06:56:43;15.90;99.90
18741;DHT22;9499;52.472;13.448;2022-09-11T06:59:10;15.90;99.90
18741;DHT22;9499;52.472;13.448;2022-09-11T07:01:38;15.80;99.90
18741;DHT22;9499;52.472;13.448;2022-09-11T07:04:06;15.80;99.90
18741;DHT22;9499;52.472;13.448;2022-09-11T07:06:34;15.90;99.90
18741;DHT22;9499;52.472;13.448;2022-09-11T07:09:03;15.90;99.90
18741;DHT22;9499;52.472;13.448;2022-09-11T07:11:31;16.00;99.90
18741;DHT22;9499;52.472;13.448;2022-09-11T07:13:58;16.00;99.90
18741;DHT22;9499;52.472;13.448;2022-09-11T07:16:25;16.10;99.90
18741;DHT22;9499;52.472;13.448;2022-09-11T07:18:52;16.10;99.90
18741;DHT22;9499;52.472;13.448;2022-09-11T07:21:22;16.20;99.90
18741;DHT22;9499;52.472;13.448;2022-09-11T07:23:53;16.20;99.90
18741;DHT22;9499;52.472;13.448;2022-09-11T07:26:21;16.20;99.90
18741;DHT22;9499;52.472;13.448;2022-09-11T07:28:49;16.20;99.90
18741;DHT22;9499;52.472;13.448;2022-09-11T07:31:18;16.20;99.90
18741;DHT22;9499;52.472;13.448;2022-09-11T07:33:47;16.20;99.90
18741;DHT22;9499;52.472;13.448;2022-09-11T07:36:30;16.20;99.90
18741;DHT22;9499;52.472;13.448;2022-09-11T07:39:05;16.30;99.90
18741;DHT22;9499;52.472;13.448;2022-09-11T07:41:42;16.30;99.90
18741;DHT22;9499;52.472;13.448;2022-09-11T07:44:12;16.40;99.90
18741;DHT22;9499;52.472;13.448;2022-09-11T07:46:39;16.40;99.90
18741;DHT22;9499;52.472;13.448;2022-09-11T07:49:06;16.50;99.90
18741;DHT22;9499;52.472;13.448;2022-09-11T07:51:36;16.60;99.90
18741;DHT22;9499;52.472;13.448;2022-09-11T07:54:03;16.70;99.90
18741;DHT22;9499;52.472;13.448;2022-09-11T07:56:29;16.70;99.90
18741;DHT22;9499;52.472;13.448;2022-09-11T07:58:56;16.70;99.90
18741;DHT22;9499;52.472;13.448;2022-09-11T08:01:24;16.70;99.90
18741;DHT22;9499;52.472;13.448;2022-09-11T08:03:52;16.80;99.90
18741;DHT22;9499;52.472;13.448;2022-09-11T08:06:21;16.80;99.90
18741;DHT22;9499;52.472;13.448;2022-09-11T08:08:52;16.90;99.90
18741;DHT22;9499;52.472;13.448;2022-09-11T08:11:19;17.00;99.90
18741;DHT22;9499;52.472;13.448;2022-09-11T08:13:46;17.00;99.90
18741;DHT22;9499;52.472;13.448;2022-09-11T08:16:15;17.10;99.90
18741;DHT22;9499;52.472;13.448;2022-09-11T08:18:41;17.20;99.90
18741;DHT22;9499;52.472;13.448;2022-09-11T08:21:09;17.20;99.90
18741;DHT22;9499;52.472;13.448;2022-09-11T08:23:37;17.20;99.90
18741;DHT22;9499;52.472;13.448;2022-09-11T08:26:09;17.30;99.90
18741;DHT22;9499;52.472;13.448;2022-09-11T08:28:37;17.40;99.90
18741;DHT22;9499;52.472;13.448;2022-09-11T08:31:04;17.50;99.90
18741;DHT22;9499;52.472;13.448;2022-09-11T08:33:31;17.50;99.90
18741;DHT22;9499;52.472;13.448;2022-09-11T08:35:59;17.60;99.90
18741;DHT22;9499;52.472;13.448;2022-09-11T08:38:27;17.60;99.90
18741;DHT22;9499;52.472;13.448;2022-09-11T08:40:55;17.60;99.90
18741;DHT22;9499;52.472;13.448;2022-09-11T08:43:27;17.60;99.90
18741;DHT22;9499;52.472;13.448;2022-09-11T08:46:02;17.50;99.90
18741;DHT22;9499;52.472;13.448;2022-09-11T08:48:37;17.50;99.90
18741;DHT22;9499;52.472;13.448;2022-09-11T08:51:08;17.50;99.90
18741;DHT22;9499;52.472;13.448;2022-09-11T08:53:38;17.60;99.90
18741;DHT22;9499;52.472;13.448;2022-09-11T08:56:10;17.70;99.90
18741;DHT22;9499;52.472;13.448;2022-09-11T08:58:49;17.70;99.90
18741;DHT22;9499;52.472;13.448;2022-09-11T09:01:24;17.70;99.90
18741;DHT22;9499;52.472;13.448;2022-09-11T09:04:08;17.60;99.90
18741;DHT22;9499;52.472;13.448;2022-09-11T09:06:53;17.60;99.90
18741;DHT22;9499;52.472;13.448;2022-09-11T09:09:27;17.70;99.90
18741;DHT22;9499;52.472;13.448;2022-09-11T09:12:00;17.80;99.90
18741;DHT22;9499;52.472;13.448;2022-09-11T09:14:49;17.80;99.90
18741;DHT22;9499;52.472;13.448;2022-09-11T09:17:25;17.80;99.90
18741;DHT22;9499;52.472;13.448;2022-09-11T09:19:57;17.90;99.90
18741;DHT22;9499;52.472;13.448;2022-09-11T09:22:34;17.90;99.90
18741;DHT22;9499;52.472;13.448;2022-09-11T09:25:05;18.00;99.90
18741;DHT22;9499;52.472;13.448;2022-09-11T09:27:39;18.00;99.90
18741;DHT22;9499;52.472;13.448;2022-09-11T09:30:14;18.00;99.90
18741;DHT22;9499;52.472;13.448;2022-09-11T09:32:46;18.10;99.90
18741;DHT22;9499;52.472;13.448;2022-09-11T09:35:17;18.10;99.90
18741;DHT22;9499;52.472;13.448;2022-09-11T09:37:44;18.00;99.90
18741;DHT22;9499;52.472;13.448;2022-09-11T09:40:14;18.10;99.90
18741;DHT22;9499;52.472;13.448;2022-09-11T09:43:06;18.20;99.90
18741;DHT22;9499;52.472;13.448;2022-09-11T09:45:44;18.40;99.90
18741;DHT22;9499;52.472;13.448;2022-09-11T09:48:15;18.50;99.90
18741;DHT22;9499;52.472;13.448;2022-09-11T09:50:42;18.40;99.90
18741;DHT22;9499;52.472;13.448;2022-09-11T09:53:14;18.50;99.90
18741;DHT22;9499;52.472;13.448;2022-09-11T09:55:43;18.50;99.90
18741;DHT22;9499;52.472;13.448;2022-09-11T09:58:11;18.40;99.90
18741;DHT22;9499;52.472;13.448;2022-09-11T10:00:39;18.40;99.90
18741;DHT22;9499;52.472;13.448;2022-09-11T10:03:18;18.30;99.90
18741;DHT22;9499;52.472;13.448;2022-09-11T10:05:45;18.00;99.90
18741;DHT22;9499;52.472;13.448;2022-09-11T10:08:24;18.00;99.90
18741;DHT22;9499;52.472;13.448;2022-09-11T10:10:53;18.00;99.90
18741;DHT22;9499;52.472;13.448;2022-09-11T10:13:23;18.20;99.90
18741;DHT22;9499;52.472;13.448;2022-09-11T10:15:55;18.30;99.90
18741;DHT22;9499;52.472;13.448;2022-09-11T10:18:35;18.40;99.90
18741;DHT22;9499;52.472;13.448;2022-09-11T10:21:24;18.50;99.90
18741;DHT22;9499;52.472;13.448;2022-09-11T10:23:55;18.60;99.90
18741;DHT22;9499;52.472;13.448;2022-09-11T10:26:27;18.60;99.90
18741;DHT22;9499;52.472;13.448;2022-09-11T10:29:00;18.60;99.90
18741;DHT22;9499;52.472;13.448;2022-09-11T10:31:28;18.50;99.90
18741;DHT22;9499;52.472;13.448;2022-09-11T10:33:56;18.40;99.90
18741;DHT22;9499;52.472;13.448;2022-09-11T10:36:25;18.40;99.90
18741;DHT22;9499;52.472;13.448;2022-09-11T10:38:53;18.30;99.90
18741;DHT22;9499;52.472;13.448;2022-09-11T10:41:22;18.30;99.90
18741;DHT22;9499;52.472;13.448;2022-09-11T10:43:53;18.20;99.90
18741;DHT22;9499;52.472;13.448;2022-09-11T10:46:25;18.20;99.90
18741;DHT22;9499;52.472;13.448;2022-09-11T10:48:56;18.20;99.90
18741;DHT22;9499;52.472;13.448;2022-09-11T10:51:25;18.30;99.90
18741;DHT22;9499;52.472;13.448;2022-09-11T10:54:19;18.30;99.90
18741;DHT22;9499;52.472;13.448;2022-09-11T10:57:02;18.40;99.90
18741;DHT22;9499;52.472;13.448;2022-09-11T10:59:36;18.50;99.90
18741;DHT22;9499;52.472;13.448;2022-09-11T11:02:17;18.70;99.90
18741;DHT22;9499;52.472;13.448;2022-09-11T11:04:46;19.00;99.90
18741;DHT22;9499;52.472;13.448;2022-09-11T11:07:24;19.10;99.90
18741;DHT22;9499;52.472;13.448;2022-09-11T11:10:02;19.10;99.90
18741;DHT22;9499;52.472;13.448;2022-09-11T11:12:45;19.20;99.90
18741;DHT22;9499;52.472;13.448;2022-09-11T11:15:24;19.10;99.90
18741;DHT22;9499;52.472;13.448;2022-09-11T11:18:08;19.10;99.90
18741;DHT22;9499;52.472;13.448;2022-09-11T11:20:47;18.90;99.90
18741;DHT22;9499;52.472;13.448;2022-09-11T11:23:53;18.80;99.90
18741;DHT22;9499;52.472;13.448;2022-09-11T11:26:39;18.90;99.90
18741;DHT22;9499;52.472;13.448;2022-09-11T11:29:21;18.80;99.90
18741;DHT22;9499;52.472;13.448;2022-09-11T11:32:02;18.80;99.90
18741;DHT22;9499;52.472;13.448;2022-09-11T11:34:40;18.70;99.90
18741;DHT22;9499;52.472;13.448;2022-09-11T11:37:16;18.70;99.90
18741;DHT22;9499;52.472;13.448;2022-09-11T11:39:52;18.80;99.90
18741;DHT22;9499;52.472;13.448;2022-09-11T11:42:24;19.10;99.90
18741;DHT22;9499;52.472;13.448;2022-09-11T11:44:55;19.90;99.90
18741;DHT22;9499;52.472;13.448;2022-09-11T11:47:27;20.50;99.90
18741;DHT22;9499;52.472;13.448;2022-09-11T11:49:59;21.10;99.90
18741;DHT22;9499;52.472;13.448;2022-09-11T11:52:39;21.50;99.90
18741;DHT22;9499;52.472;13.448;2022-09-11T11:55:15;21.80;99.90
18741;DHT22;9499;52.472;13.448;2022-09-11T11:57:48;22.10;99.90
18741;DHT22;9499;52.472;13.448;2022-09-11T12:00:18;22.00;99.90
18741;DHT22;9499;52.472;13.448;2022-09-11T12:02:51;22.00;99.90
18741;DHT22;9499;52.472;13.448;2022-09-11T12:05:20;21.50;99.90
18741;DHT22;9499;52.472;13.448;2022-09-11T12:07:50;21.20;99.90
18741;DHT22;9499;52.472;13.448;2022-09-11T12:10:20;21.00;99.90
18741;DHT22;9499;52.472;13.448;2022-09-11T12:12:51;21.00;99.90
18741;DHT22;9499;52.472;13.448;2022-09-11T12:15:20;20.90;99.90
18741;DHT22;9499;52.472;13.448;2022-09-11T12:17:57;20.70;99.90
18741;DHT22;9499;52.472;13.448;2022-09-11T12:20:30;21.10;99.90
18741;DHT22;9499;52.472;13.448;2022-09-11T12:22:59;21.50;99.90
18741;DHT22;9499;52.472;13.448;2022-09-11T12:26:02;21.80;99.90
18741;DHT22;9499;52.472;13.448;2022-09-11T12:28:30;22.00;99.90
18741;DHT22;9499;52.472;13.448;2022-09-11T12:31:03;22.00;99.90
18741;DHT22;9499;52.472;13.448;2022-09-11T12:33:51;21.70;99.90
18741;DHT22;9499;52.472;13.448;2022-09-11T12:36:28;21.40;99.90
18741;DHT22;9499;52.472;13.448;2022-09-11T12:39:02;21.20;99.90
18741;DHT22;9499;52.472;13.448;2022-09-11T12:41:31;20.90;99.90
18741;DHT22;9499;52.472;13.448;2022-09-11T12:43:59;20.50;99.90
18741;DHT22;9499;52.472;13.448;2022-09-11T12:49:40;20.20;99.90
18741;DHT22;9499;52.472;13.448;2022-09-11T12:52:18;20.20;99.90
18741;DHT22;9499;52.472;13.448;2022-09-11T12:54:51;20.30;99.90
18741;DHT22;9499;52.472;13.448;2022-09-11T12:57:23;20.20;99.90
18741;DHT22;9499;52.472;13.448;2022-09-11T12:59:55;20.10;99.90
18741;DHT22;9499;52.472;13.448;2022-09-11T13:02:26;20.10;99.90
18741;DHT22;9499;52.472;13.448;2022-09-11T13:04:54;20.00;99.90
18741;DHT22;9499;52.472;13.448;2022-09-11T13:07:26;20.00;99.90
18741;DHT22;9499;52.472;13.448;2022-09-11T13:10:00;19.90;99.90
18741;DHT22;9499;52.472;13.448;2022-09-11T13:12:48;19.80;99.90
18741;DHT22;9499;52.472;13.448;2022-09-11T13:15:39;19.70;99.90
18741;DHT22;9499;52.472;13.448;2022-09-11T13:18:23;19.60;99.90
18741;DHT22;9499;52.472;13.448;2022-09-11T13:21:01;19.60;99.90
18741;DHT22;9499;52.472;13.448;2022-09-11T13:23:29;19.60;99.90
18741;DHT22;9499;52.472;13.448;2022-09-11T13:25:57;19.50;99.90
18741;DHT22;9499;52.472;13.448;2022-09-11T13:28:26;19.50;99.90
18741;DHT22;9499;52.472;13.448;2022-09-11T13:30:58;19.60;99.90
18741;DHT22;9499;52.472;13.448;2022-09-11T13:33:27;19.70;99.90
18741;DHT22;9499;52.472;13.448;2022-09-11T13:35:57;19.70;99.90
18741;DHT22;9499;52.472;13.448;2022-09-11T13:38:28;19.70;99.90
18741;DHT22;9499;52.472;13.448;2022-09-11T13:40:59;19.70;99.90
18741;DHT22;9499;52.472;13.448;2022-09-11T13:43:29;19.60;99.90
18741;DHT22;9499;52.472;13.448;2022-09-11T13:46:18;19.60;99.90
18741;DHT22;9499;52.472;13.448;2022-09-11T13:48:48;19.60;99.90
18741;DHT22;9499;52.472;13.448;2022-09-11T13:51:16;19.60;99.90
18741;DHT22;9499;52.472;13.448;2022-09-11T13:53:45;19.60;99.90
18741;DHT22;9499;52.472;13.448;2022-09-11T13:56:18;19.60;99.90
18741;DHT22;9499;52.472;13.448;2022-09-11T14:01:50;19.70;99.90
18741;DHT22;9499;52.472;13.448;2022-09-11T14:04:18;19.70;99.90
18741;DHT22;9499;52.472;13.448;2022-09-11T14:06:45;19.90;99.90
18741;DHT22;9499;52.472;13.448;2022-09-11T14:09:14;20.30;99.90
18741;DHT22;9499;52.472;13.448;2022-09-11T14:11:44;20.90;99.90
18741;DHT22;9499;52.472;13.448;2022-09-11T14:14:12;21.50;99.90
18741;DHT22;9499;52.472;13.448;2022-09-11T14:16:46;22.00;99.90
18741;DHT22;9499;52.472;13.448;2022-09-11T14:19:15;22.50;99.90
18741;DHT22;9499;52.472;13.448;2022-09-11T14:21:45;22.90;99.90
18741;DHT22;9499;52.472;13.448;2022-09-11T14:24:24;23.20;99.90
18741;DHT22;9499;52.472;13.448;2022-09-11T14:26:53;23.10;99.90
18741;DHT22;9499;52.472;13.448;2022-09-11T14:29:24;23.10;99.90
18741;DHT22;9499;52.472;13.448;2022-09-11T14:31:53;23.00;99.90
18741;DHT22;9499;52.472;13.448;2022-09-11T14:34:23;23.10;99.90
18741;DHT22;9499;52.472;13.448;2022-09-11T14:36:54;23.30;99.90
18741;DHT22;9499;52.472;13.448;2022-09-11T14:39:28;23.50;99.90
18741;DHT22;9499;52.472;13.448;2022-09-11T14:41:57;23.50;99.90
18741;DHT22;9499;52.472;13.448;2022-09-11T14:44:24;23.40;99.90
18741;DHT22;9499;52.472;13.448;2022-09-11T14:46:52;23.00;99.90
18741;DHT22;9499;52.472;13.448;2022-09-11T14:49:19;23.00;99.90
18741;DHT22;9499;52.472;13.448;2022-09-11T14:51:51;23.00;99.90
18741;DHT22;9499;52.472;13.448;2022-09-11T14:54:19;23.00;99.90
18741;DHT22;9499;52.472;13.448;2022-09-11T14:56:46;22.90;99.90
18741;DHT22;9499;52.472;13.448;2022-09-11T14:59:14;22.90;99.90
18741;DHT22;9499;52.472;13.448;2022-09-11T15:01:41;22.70;99.90
18741;DHT22;9499;52.472;13.448;2022-09-11T15:04:10;22.20;99.90
18741;DHT22;9499;52.472;13.448;2022-09-11T15:06:41;21.80;99.90
18741;DHT22;9499;52.472;13.448;2022-09-11T15:09:07;21.40;99.90
18741;DHT22;9499;52.472;13.448;2022-09-11T15:11:33;21.20;99.90
18741;DHT22;9499;52.472;13.448;2022-09-11T15:14:00;21.10;99.90
18741;DHT22;9499;52.472;13.448;2022-09-11T15:16:34;21.00;99.90
18741;DHT22;9499;52.472;13.448;2022-09-11T15:19:00;20.80;99.90
18741;DHT22;9499;52.472;13.448;2022-09-11T15:21:27;20.60;99.90
18741;DHT22;9499;52.472;13.448;2022-09-11T15:23:54;20.50;99.90
18741;DHT22;9499;52.472;13.448;2022-09-11T15:26:20;20.50;99.90
18741;DHT22;9499;52.472;13.448;2022-09-11T15:28:47;20.50;99.90
18741;DHT22;9499;52.472;13.448;2022-09-11T15:31:16;20.40;99.90
18741;DHT22;9499;52.472;13.448;2022-09-11T15:33:48;20.30;99.90
18741;DHT22;9499;52.472;13.448;2022-09-11T15:36:14;20.10;99.90
18741;DHT22;9499;52.472;13.448;2022-09-11T15:38:41;20.10;99.90
18741;DHT22;9499;52.472;13.448;2022-09-11T15:41:07;20.10;99.90
18741;DHT22;9499;52.472;13.448;2022-09-11T15:43:36;20.00;99.90
18741;DHT22;9499;52.472;13.448;2022-09-11T15:46:07;20.00;99.90
18741;DHT22;9499;52.472;13.448;2022-09-11T15:48:35;20.10;99.90
18741;DHT22;9499;52.472;13.448;2022-09-11T15:51:04;20.00;99.90
18741;DHT22;9499;52.472;13.448;2022-09-11T15:53:32;20.00;99.90
18741;DHT22;9499;52.472;13.448;2022-09-11T15:56:02;20.00;99.90
18741;DHT22;9499;52.472;13.448;2022-09-11T15:58:29;19.90;99.90
18741;DHT22;9499;52.472;13.448;2022-09-11T16:00:56;19.80;99.90